Home > Products > Valid Products > TAF

000
FTUS45 KFGZ 231700
TAFPGA
TAF
KPGA 231739Z 2318/2418 VRB06KT P6SM SCT140
     FM240230 VRB05KT P6SM BKN100=



000
FTUS45 KFGZ 231700
TAFFLG
TAF
KFLG 231739Z 2318/2418 20010KT P6SM BKN090
      TEMPO 2321/2401 VRB15G25KT -TSRA BKN070CB
     FM240230 VRB04KT P6SM BKN100=



000
FTUS45 KFGZ 231700
TAFINW
TAF
KINW 231739Z 2318/2418 10008KT P6SM SCT130
     FM231900 19011KT P6SM BKN110
     FM240500 VRB05KT P6SM BKN100=



000
FTUS45 KFGZ 231500 AAA
TAFFLG
TAF AMD
KFLG 231559Z 2316/2412 21007KT 6SM FU SCT120
      TEMPO 2316/2318 3SM FU
     FM231800 20010KT P6SM BKN090
      TEMPO 2319/2323 VRB10G20KT -TSRA BKN070CB
     FM240230 VRB04KT P6SM BKN100=



000
FTUS45 KFGZ 231100
TAFPGA
TAF
KPGA 231120Z 2312/2412 VRB06KT P6SM SCT140
     FM240230 VRB05KT P6SM BKN100=



000
FTUS45 KFGZ 231100
TAFINW
TAF
KINW 231120Z 2312/2412 VRB06KT P6SM SCT130
     FM231900 19011KT P6SM BKN110
     FM240500 VRB05KT P6SM BKN100=



000
FTUS45 KFGZ 231100
TAFFLG
TAF
KFLG 231120Z 2312/2412 VRB04KT P6SM SCT120
     FM231800 20010KT P6SM BKN090
      TEMPO 2319/2323 VRB10G20KT -TSRA BKN070CB
     FM240230 VRB04KT P6SM BKN100=



000
FTUS45 KFGZ 230500
TAFINW
TAF
KINW 230536Z 2306/2406 13007KT P6SM BKN130
     FM231900 19011KT P6SM BKN110
     FM240500 VRB05KT P6SM BKN100=



000
FTUS45 KFGZ 230500
TAFFLG
TAF
KFLG 230536Z 2306/2406 VRB04KT P6SM SCT100
      TEMPO 2306/2308 09010G20KT
     FM231800 20010G15KT P6SM BKN090 PROB30 2318/2324 VRB15G25KT 6SM
      -TSRA BKN070CB
     FM240230 VRB04KT P6SM BKN100=



000
FTUS45 KFGZ 230500
TAFPGA
TAF
KPGA 230536Z 2306/2406 VRB06KT P6SM BKN140
     FM240230 VRB05KT P6SM BKN100=



000
FTUS45 KFGZ 222300
TAFINW
TAF
KINW 222323Z 2300/2324 VRB06KT P6SM BKN130
     FM230200 VRB05KT P6SM BKN130
     FM231900 19011KT P6SM BKN110=



000
FTUS45 KFGZ 222300
TAFPGA
TAF
KPGA 222323Z 2300/2324 VRB06KT P6SM FEW140
     FM230300 VRB06KT P6SM BKN140=



000
FTUS45 KFGZ 222300
TAFFLG
TAF
KFLG 222323Z 2300/2324 VRB05KT P6SM BKN100
     FM231800 20009KT P6SM BKN090 PROB30 2318/2324 VRB15G25KT 6SM
      -TSRA BKN070CB=



000
FTUS45 KFGZ 221700
TAFINW
TAF
KINW 221738Z 2218/2318 01007KT P6SM BKN130
     FM230200 VRB05KT P6SM BKN130=



000
FTUS45 KFGZ 221700
TAFPGA
TAF
KPGA 221738Z 2218/2318 VRB06KT P6SM FEW140
     FM230200 VRB06KT P6SM BKN140=



000
FTUS45 KFGZ 221700
TAFFLG
TAF
KFLG 221738Z 2218/2318 09007KT P6SM BKN100
     FM230000 VRB06KT P6SM BKN090=



000
FTUS45 KFGZ 221100
TAFINW
TAF
KINW 221120Z 2212/2312 VRB05KT P6SM SKC
     FM221900 14008KT P6SM SCT130
     FM230200 VRB05KT P6SM BKN130=



000
FTUS45 KFGZ 221100
TAFFLG
TAF
KFLG 221120Z 2212/2312 VRB02KT P6SM SKC
     FM221700 09007KT P6SM SCT090
     FM230030 19007KT P6SM BKN090=



000
FTUS45 KFGZ 221100
TAFPGA
TAF
KPGA 221120Z 2212/2312 VRB06KT P6SM SKC
     FM221900 VRB06KT P6SM FEW140=



000
FTUS45 KFGZ 220500
TAFINW
TAF
KINW 220528Z 2206/2306 25010KT P6SM SKC
     FM220800 VRB05KT P6SM SKC
     FM221900 20010KT P6SM SCT090
     FM230500 VRB05KT P6SM SCT080=



000
FTUS45 KFGZ 220500
TAFPGA
TAF
KPGA 220528Z 2206/2306 VRB06KT P6SM SKC
     FM221900 VRB06KT P6SM SCT090=



000
FTUS45 KFGZ 220500
TAFFLG
TAF
KFLG 220528Z 2206/2306 VRB02KT P6SM SKC
     FM221700 19009KT P6SM SCT070
     FM230230 VRB03KT P6SM SCT070=



000
FTUS45 KFGZ 212300
TAFPGA
TAF
KPGA 212327Z 2200/2224 VRB06KT P6SM SKC=



000
FTUS45 KFGZ 212300
TAFINW
TAF
KINW 212327Z 2200/2224 22010G18KT P6SM SCT250
     FM220300 VRB05KT P6SM SKC
      TEMPO 2206/2210 5SM FU
     FM221900 24010G18KT P6SM SCT080=



000
FTUS45 KFGZ 212300
TAFFLG
TAF
KFLG 212327Z 2200/2224 22011KT P6SM FEW250
     FM220300 VRB03KT P6SM SKC
     FM221700 21010G18KT P6SM SCT080=



000
FTUS45 KFGZ 211700
TAFPGA
TAF
KPGA 211736Z 2118/2218 VRB06KT P6SM SKC=



000
FTUS45 KFGZ 211700
TAFINW
TAF
KINW 211736Z 2118/2218 VRB06KT P6SM SCT200 BKN250
     FM211900 23010G18KT P6SM SCT250
     FM220300 VRB05KT P6SM SKC
      TEMPO 2206/2210 5SM FU=



000
FTUS45 KFGZ 211700
TAFFLG
TAF
KFLG 211736Z 2118/2218 24010G18KT P6SM FEW250
     FM220300 VRB03KT P6SM SKC=



000
FTUS45 KFGZ 211600 AAA
TAFFLG
TAF AMD
KFLG 211624Z 2116/2212 23010G18KT P6SM FEW250
     FM220300 VRB03KT P6SM SKC=



000
FTUS45 KFGZ 211100
TAFPGA
TAF
KPGA 211120Z 2112/2212 VRB06KT P6SM SKC=



000
FTUS45 KFGZ 211100
TAFINW
TAF
KINW 211120Z 2112/2212 VRB06KT P6SM SCT200 BKN250
     FM211900 23010G18KT P6SM SCT250
     FM220300 VRB05KT P6SM SKC=



000
FTUS45 KFGZ 211100
TAFFLG
TAF
KFLG 211120Z 2112/2212 VRB06KT P6SM SCT250
     FM211700 22010G18KT P6SM FEW250
     FM220300 VRB03KT P6SM SKC=



000
FTUS45 KFGZ 210500
TAFINW
TAF
KINW 210520Z 2106/2206 VRB06KT P6SM FEW250
     FM212000 23010G18KT P6SM SKC
     FM220400 VRB05KT P6SM SKC=



000
FTUS45 KFGZ 210500
TAFPGA
TAF
KPGA 210520Z 2106/2206 VRB06KT P6SM SKC=



000
FTUS45 KFGZ 210500
TAFFLG
TAF
KFLG 210520Z 2106/2206 VRB03KT P6SM SKC
     FM211700 22010G18KT P6SM FEW250
     FM220300 VRB03KT P6SM SKC=



000
FTUS45 KFGZ 210100 AAB
TAFFLG
TAF AMD
KFLG 210123Z 2101/2124 23012G18KT P6SM FEW100 SCT200
     FM210200 23004KT P6SM SKC
     FM211700 23011G18KT P6SM FEW250=



000
FTUS45 KFGZ 210000 AAA
TAFFLG
TAF AMD
KFLG 210041Z 2101/2124 25012G18KT P6SM FEW100 SCT200
     FM210200 23004KT P6SM SKC
     FM211700 23011G18KT P6SM FEW250=



000
FTUS45 KFGZ 202300
TAFPGA
TAF
KPGA 202320Z 2100/2124 23009KT P6SM FEW130 SCT250
     FM210300 VRB06KT P6SM FEW250=



000
FTUS45 KFGZ 202300
TAFFLG
TAF
KFLG 202320Z 2100/2124 22012G18KT P6SM FEW100 SCT200
     FM210200 23004KT P6SM SKC
     FM211700 23011G18KT P6SM FEW250=



000
FTUS45 KFGZ 202300
TAFINW
TAF
KINW 202320Z 2100/2124 24010G20KT P6SM FEW130 SCT250
     FM210300 23009KT P6SM FEW130
     FM210900 VRB06KT P6SM FEW250
     FM212000 24011KT P6SM FEW130=



    US Dept of Commerce
    National Oceanic and Atmospheric Administration
    National Weather Service
    1325 East West Highway
    Silver Spring, MD 20910
    Page Author: NWS Internet Services Team
Disclaimer
Information Quality
Credits
Glossary
Privacy Policy
Freedom of Information Act (FOIA)
About Us
Career Opportunities